Flugplatz Arnstadt-Alkersleben

Für EDBA sind keine METAR/TAF Berichte vorhanden.
Es werden die Flugwettermeldungen vom Flugplatz Erfurt in 17 km Entfernung angezeigt.

Bericht für EDDE

vom 25.01. um 21:50 UTC

Wind 7 kt aus 220°

Sichtweite 100 m

Code: FZFG

Temperatur -3.0°C

Taupunkt -3.0°C

Luftfeuchtigkeit 100%

Luftdruck 1020 hPa

EDDE 252150Z 22007KT 0100 R28/0500D FZFG VV/// M03/M03 Q1020

Prognose für EDDE

vom 25.01. um 00:00 UTC

Zwischen 00:00 UTC und 00:00 UTC

Wind 4 kt aus 230°

Sichtweite 3000 m

feuchter Dunst

bedeckt in 500 ft


Zwischen 00:00 UTC und 00:00 UTC zeitweise

Sichtweite 100 m

Code: FZFG

bedeckt in 100 ft


Am 26.01. zwischen 00:00 und 00:00 UTC übergehend zu

Wind 4 kt aus 230°

Sichtweite 6000 m

feuchter Dunst

aufgelockert bewölkt in 1200 ft

TAF EDDE 251700Z 2518/2618 23004KT 3000 BR OVC005 TEMPO 2518/2610 0100 FZFG OVC001 BECMG 2609/2612 6000 SCT012
Impressum